Terminal Aerodrome Forecast
Issued by NWS

Home | Current Version | Previous Version | Text Only | Print | Product List | Glossary On
Versions: 1 2 3 4 5 6 7 8 9 10 11 12 13 14 15 16 17
000
FTUS43 KGRR 230100 AAA
TAFBTL
TAF AMD
KBTL 230152Z 2302/2324 11007G15KT P6SM -RA OVC035
      TEMPO 2302/2304 4SM -RAPL BR OVC025
     FM230400 11010KT 3SM -RA BR OVC015
     FM230600 11012KT 2SM -RA BR OVC007
     FM231000 13010KT 1 1/2SM -RA BR OVC004
     FM231800 18006KT 4SM BR VCSH OVC007=

USA.gov is the U.S. government's official web portal to all federal, state and local government web resources and services.